Time;durP1;ratioP1;P1;durP2;ratioP2;P2;SDS_P1;SDS_P2;PMS_P1;PMS_P2;Temp;Humidity;BMP_temperature;BMP_pressure;BME280_temperature;BME280_humidity;BME280_pressure;Samples;Min_cycle;Max_cycle;Signal;HPM_P1;HPM_P2
2021/08/06 00:01:24;;;;;;;8.13;6.07;;;;;;;;;;5119404;28;20531;-73
2021/08/06 00:03:49;;;;;;;8.63;6.40;;;;;;;;;;5118926;28;20398;-71
2021/08/06 00:06:15;;;;;;;7.65;6.72;;;;;;;;;;5118505;28;20073;-71
2021/08/06 00:08:40;;;;;;;10.07;6.55;;;;;;;;;;5118941;28;20040;-72
2021/08/06 00:11:06;;;;;;;9.07;5.80;;;;;;;;;;5118786;28;20028;-72
2021/08/06 00:13:31;;;;;;;13.85;9.85;;;;;;;;;;5119481;28;20035;-71
2021/08/06 00:15:57;;;;;;;11.10;6.88;;;;;;;;;;5119055;28;20095;-72
2021/08/06 00:18:23;;;;;;;9.00;6.45;;;;;;;;;;5118577;28;20028;-72
2021/08/06 00:20:49;;;;;;;12.73;6.88;;;;;;;;;;5099553;28;20027;-72
2021/08/06 00:23:14;;;;;;;7.95;6.75;;;;;;;;;;5118724;28;20031;-72
2021/08/06 00:25:39;;;;;;;10.57;6.82;;;;;;;;;;5118409;28;20034;-71
2021/08/06 00:28:05;;;;;;;9.48;6.70;;;;;;;;;;5119044;28;20395;-73
2021/08/06 00:30:30;;;;;;;8.60;6.68;;;;;;;;;;5118736;28;20026;-71
2021/08/06 00:32:56;;;;;;;8.85;6.07;;;;;;;;;;5118272;28;20391;-71
2021/08/06 00:35:22;;;;;;;7.25;6.30;;;;;;;;;;5118688;28;20047;-71
2021/08/06 00:37:48;;;;;;;7.43;6.60;;;;;;;;;;5118057;28;20096;-70
2021/08/06 00:40:14;;;;;;;10.10;6.78;;;;;;;;;;5118143;28;20075;-71
2021/08/06 00:42:39;;;;;;;11.95;7.25;;;;;;;;;;5118676;28;20034;-70
2021/08/06 00:45:05;;;;;;;12.70;6.57;;;;;;;;;;5118635;28;20030;-73
2021/08/06 00:47:32;;;;;;;12.05;6.78;;;;;;;;;;5117950;28;20035;-71
2021/08/06 00:49:57;;;;;;;13.77;7.47;;;;;;;;;;5117857;28;20509;-73
2021/08/06 00:52:22;;;;;;;9.45;6.13;;;;;;;;;;5119346;28;20035;-72
2021/08/06 00:54:48;;;;;;;11.82;6.38;;;;;;;;;;5118549;28;20055;-71
2021/08/06 00:57:14;;;;;;;9.70;6.03;;;;;;;;;;5118485;28;20534;-72
2021/08/06 00:59:40;;;;;;;7.88;6.80;;;;;;;;;;5119446;28;20020;-73
2021/08/06 01:02:12;;;;;;;8.75;6.50;;;;;;;;;;5119488;28;20076;-70
2021/08/06 01:04:52;;;;;;;9.18;6.82;;;;;;;;;;5118277;28;20102;-72
2021/08/06 01:07:23;;;;;;;8.65;6.50;;;;;;;;;;5118457;28;20031;-71
2021/08/06 01:09:55;;;;;;;8.52;7.10;;;;;;;;;;5099849;28;20028;-73
2021/08/06 01:12:32;;;;;;;8.77;6.82;;;;;;;;;;5118183;28;20477;-73
2021/08/06 01:15:01;;;;;;;8.65;7.30;;;;;;;;;;5117821;28;20032;-73
2021/08/06 01:17:30;;;;;;;12.18;7.93;;;;;;;;;;5117441;28;20062;-72
2021/08/06 01:20:21;;;;;;;10.85;7.38;;;;;;;;;;5099503;28;20020;-72
2021/08/06 01:22:55;;;;;;;12.35;7.75;;;;;;;;;;5118127;28;20070;-73
2021/08/06 01:25:45;;;;;;;10.52;7.50;;;;;;;;;;5118422;28;20019;-72
2021/08/06 01:28:16;;;;;;;9.55;7.03;;;;;;;;;;5117604;28;20024;-72
2021/08/06 01:30:43;;;;;;;8.02;7.07;;;;;;;;;;5099980;28;20046;-71
2021/08/06 01:33:09;;;;;;;9.73;6.82;;;;;;;;;;5116390;28;20031;-72
2021/08/06 01:35:34;;;;;;;9.00;6.95;;;;;;;;;;5117067;28;20077;-73
2021/08/06 01:38:01;;;;;;;9.02;7.05;;;;;;;;;;5116722;28;20027;-72
2021/08/06 01:40:26;;;;;;;10.75;7.45;;;;;;;;;;5117506;28;20368;-72
2021/08/06 01:42:59;;;;;;;8.07;6.65;;;;;;;;;;5116342;28;20039;-71
2021/08/06 01:45:30;;;;;;;15.20;7.47;;;;;;;;;;5116616;28;20111;-73
2021/08/06 01:47:57;;;;;;;11.50;6.78;;;;;;;;;;5116302;28;20062;-72
2021/08/06 01:50:34;;;;;;;10.07;6.57;;;;;;;;;;5082174;28;20407;-72
2021/08/06 01:53:02;;;;;;;9.27;6.50;;;;;;;;;;5116359;28;20030;-73
2021/08/06 01:55:33;;;;;;;11.10;6.20;;;;;;;;;;5116587;28;20035;-72
2021/08/06 01:58:01;;;;;;;13.05;7.05;;;;;;;;;;5116528;28;20020;-72
2021/08/06 02:00:26;;;;;;;10.00;6.88;;;;;;;;;;5115598;28;20039;-72
2021/08/06 02:02:53;;;;;;;8.80;6.40;;;;;;;;;;5117248;28;20032;-72
2021/08/06 02:05:21;;;;;;;7.82;6.00;;;;;;;;;;5117054;28;20471;-73
2021/08/06 02:07:47;;;;;;;8.43;6.28;;;;;;;;;;5115269;28;20019;-72
2021/08/06 02:10:14;;;;;;;8.73;6.25;;;;;;;;;;5116537;28;20042;-73
2021/08/06 02:12:40;;;;;;;7.57;6.28;;;;;;;;;;5116066;28;20380;-72
2021/08/06 02:15:10;;;;;;;9.65;6.53;;;;;;;;;;5116286;28;20027;-72
2021/08/06 02:17:36;;;;;;;8.57;6.03;;;;;;;;;;5115697;28;20122;-71
2021/08/06 02:20:05;;;;;;;7.47;6.22;;;;;;;;;;5115799;28;20053;-71
2021/08/06 02:22:32;;;;;;;10.80;6.68;;;;;;;;;;5116144;28;20422;-71
2021/08/06 02:24:57;;;;;;;8.48;6.10;;;;;;;;;;5116611;28;20034;-70
2021/08/06 02:27:23;;;;;;;13.27;7.65;;;;;;;;;;5116159;28;20061;-74
2021/08/06 02:29:51;;;;;;;10.13;6.30;;;;;;;;;;5115794;28;20028;-73
2021/08/06 02:32:17;;;;;;;12.20;6.30;;;;;;;;;;5097613;28;20031;-72
2021/08/06 02:34:43;;;;;;;7.25;6.05;;;;;;;;;;5116164;28;20027;-72
2021/08/06 02:37:08;;;;;;;8.15;5.97;;;;;;;;;;5116034;28;20033;-72
2021/08/06 02:39:34;;;;;;;8.35;6.38;;;;;;;;;;5115842;28;20031;-72
2021/08/06 02:42:01;;;;;;;6.85;5.95;;;;;;;;;;5116111;28;20028;-71
2021/08/06 02:44:27;;;;;;;14.23;6.18;;;;;;;;;;5115789;28;20028;-72
2021/08/06 02:46:52;;;;;;;8.70;6.55;;;;;;;;;;5116267;28;20059;-72
2021/08/06 02:49:18;;;;;;;10.77;6.15;;;;;;;;;;5115623;28;20062;-71
2021/08/06 02:51:43;;;;;;;6.93;6.20;;;;;;;;;;5115505;28;20471;-73
2021/08/06 02:54:09;;;;;;;6.57;5.78;;;;;;;;;;5116266;28;20024;-72
2021/08/06 02:56:34;;;;;;;10.10;6.43;;;;;;;;;;5115485;28;20031;-71
2021/08/06 02:59:00;;;;;;;12.48;6.05;;;;;;;;;;5118550;27;20019;-71
2021/08/06 03:01:25;;;;;;;9.20;6.30;;;;;;;;;;5134948;27;20043;-72
2021/08/06 03:03:50;;;;;;;10.63;6.47;;;;;;;;;;5135382;27;20027;-73
2021/08/06 03:06:16;;;;;;;7.85;6.38;;;;;;;;;;5136020;27;20034;-72
2021/08/06 03:08:41;;;;;;;8.30;6.47;;;;;;;;;;5116263;27;20023;-72
2021/08/06 03:11:06;;;;;;;11.40;7.30;;;;;;;;;;5097043;28;20110;-71
2021/08/06 03:13:32;;;;;;;8.93;6.68;;;;;;;;;;5114432;28;20085;-71
2021/08/06 03:15:57;;;;;;;10.80;6.78;;;;;;;;;;5115795;28;20369;-72
2021/08/06 03:18:22;;;;;;;12.65;6.47;;;;;;;;;;5097939;28;20032;-71
2021/08/06 03:20:48;;;;;;;8.77;6.00;;;;;;;;;;5114658;28;20476;-72
2021/08/06 03:23:13;;;;;;;7.68;6.05;;;;;;;;;;5115203;28;20102;-72
2021/08/06 03:25:39;;;;;;;13.10;7.10;;;;;;;;;;5115525;28;20429;-72
2021/08/06 03:28:04;;;;;;;9.77;6.63;;;;;;;;;;5115036;28;20461;-72
2021/08/06 03:30:30;;;;;;;12.48;6.70;;;;;;;;;;5115973;28;20031;-72
2021/08/06 03:32:55;;;;;;;7.55;6.38;;;;;;;;;;5115739;28;20383;-73
2021/08/06 03:35:21;;;;;;;8.48;6.38;;;;;;;;;;5115973;28;20115;-72
2021/08/06 03:37:46;;;;;;;12.50;6.70;;;;;;;;;;5115981;28;20028;-71
2021/08/06 03:40:13;;;;;;;12.98;6.00;;;;;;;;;;5115411;28;20051;-72
2021/08/06 03:42:40;;;;;;;11.15;6.78;;;;;;;;;;5115334;28;20434;-72
2021/08/06 03:45:06;;;;;;;9.93;7.43;;;;;;;;;;5114972;28;20023;-71
2021/08/06 03:47:33;;;;;;;9.40;6.40;;;;;;;;;;5115662;28;20028;-72
2021/08/06 03:49:59;;;;;;;9.82;6.30;;;;;;;;;;5114511;28;20032;-71
2021/08/06 03:52:24;;;;;;;12.00;6.95;;;;;;;;;;5114614;28;20098;-72
2021/08/06 03:54:49;;;;;;;9.80;6.57;;;;;;;;;;5115121;28;20027;-72
2021/08/06 03:57:14;;;;;;;9.70;6.10;;;;;;;;;;5114734;28;20027;-72
2021/08/06 03:59:40;;;;;;;13.90;6.80;;;;;;;;;;5114286;28;20054;-72
2021/08/06 04:02:05;;;;;;;9.35;5.97;;;;;;;;;;5114215;28;20031;-73
2021/08/06 04:04:31;;;;;;;7.60;6.07;;;;;;;;;;5115257;28;20035;-72
2021/08/06 04:06:56;;;;;;;11.32;5.90;;;;;;;;;;5079963;28;20030;-72
2021/08/06 04:09:22;;;;;;;10.93;6.57;;;;;;;;;;5114930;28;20506;-73
2021/08/06 04:11:47;;;;;;;10.88;5.60;;;;;;;;;;5114647;28;20081;-72
2021/08/06 04:14:12;;;;;;;8.25;5.38;;;;;;;;;;5115260;28;20364;-72
2021/08/06 04:16:38;;;;;;;7.75;5.00;;;;;;;;;;5114810;28;20047;-72
2021/08/06 04:19:03;;;;;;;11.25;5.97;;;;;;;;;;5112023;28;20112;-73
2021/08/06 04:21:28;;;;;;;10.20;5.97;;;;;;;;;;5116121;28;20061;-73
2021/08/06 04:23:54;;;;;;;6.82;5.53;;;;;;;;;;5115979;28;20451;-73
2021/08/06 04:26:20;;;;;;;14.55;5.50;;;;;;;;;;5118490;28;20030;-73
2021/08/06 04:28:45;;;;;;;13.82;6.55;;;;;;;;;;5115040;28;20043;-72
2021/08/06 04:31:10;;;;;;;13.98;5.60;;;;;;;;;;5117061;28;20051;-71
2021/08/06 04:33:36;;;;;;;7.32;5.15;;;;;;;;;;5118104;28;20027;-72
2021/08/06 04:36:02;;;;;;;8.52;5.43;;;;;;;;;;5118143;28;20110;-73
2021/08/06 04:38:27;;;;;;;9.50;5.63;;;;;;;;;;5101249;28;20046;-72
2021/08/06 04:40:52;;;;;;;8.18;5.60;;;;;;;;;;5111178;28;20027;-72
2021/08/06 04:43:20;;;;;;;6.57;5.20;;;;;;;;;;5117521;28;20023;-72
2021/08/06 04:45:49;;;;;;;6.70;4.93;;;;;;;;;;5119208;28;20024;-73
2021/08/06 04:48:19;;;;;;;7.35;5.38;;;;;;;;;;5118752;28;20383;-72
2021/08/06 04:50:45;;;;;;;9.40;5.53;;;;;;;;;;5116320;28;20444;-72
2021/08/06 04:53:10;;;;;;;7.78;5.13;;;;;;;;;;5121255;27;20035;-72
2021/08/06 04:55:36;;;;;;;15.43;5.32;;;;;;;;;;5115836;27;20502;-70
2021/08/06 04:58:03;;;;;;;9.30;5.63;;;;;;;;;;5115860;28;20035;-69
2021/08/06 05:00:28;;;;;;;11.25;5.78;;;;;;;;;;5116116;28;20023;-69
2021/08/06 05:02:53;;;;;;;8.80;5.97;;;;;;;;;;5116041;28;20031;-70
2021/08/06 05:05:19;;;;;;;8.05;5.43;;;;;;;;;;5115773;28;20026;-71
2021/08/06 05:07:49;;;;;;;9.82;5.55;;;;;;;;;;5116223;28;20399;-71
2021/08/06 05:10:16;;;;;;;7.75;5.60;;;;;;;;;;5114488;28;20028;-70
2021/08/06 05:12:41;;;;;;;8.82;4.93;;;;;;;;;;5115896;28;20027;-71
2021/08/06 05:15:07;;;;;;;6.90;5.32;;;;;;;;;;5115982;28;20031;-71
2021/08/06 05:17:32;;;;;;;10.23;5.80;;;;;;;;;;5116292;28;20057;-72
2021/08/06 05:19:57;;;;;;;7.10;5.20;;;;;;;;;;5115774;28;20069;-71
2021/08/06 05:22:22;;;;;;;7.18;5.15;;;;;;;;;;5116069;28;20015;-71
2021/08/06 05:24:48;;;;;;;7.88;4.95;;;;;;;;;;5115075;28;20470;-71
2021/08/06 05:27:13;;;;;;;8.40;5.18;;;;;;;;;;5115488;28;20028;-71
2021/08/06 05:29:38;;;;;;;12.88;5.93;;;;;;;;;;5115538;28;20570;-71
2021/08/06 05:32:04;;;;;;;7.68;5.00;;;;;;;;;;5103482;28;20030;-71
2021/08/06 05:34:29;;;;;;;6.90;4.95;;;;;;;;;;5095208;28;20034;-72
2021/08/06 05:36:55;;;;;;;8.43;5.50;;;;;;;;;;5097405;28;20028;-71
2021/08/06 05:39:20;;;;;;;15.23;5.60;;;;;;;;;;5115199;28;20114;-71
2021/08/06 05:41:46;;;;;;;12.25;5.60;;;;;;;;;;5115717;28;20031;-71
2021/08/06 05:44:12;;;;;;;10.48;5.05;;;;;;;;;;5115767;28;20039;-71
2021/08/06 05:46:37;;;;;;;8.45;5.00;;;;;;;;;;5115343;28;20023;-71
2021/08/06 05:49:02;;;;;;;9.95;5.95;;;;;;;;;;5114785;28;20041;-71
2021/08/06 05:51:28;;;;;;;9.63;5.18;;;;;;;;;;5114404;28;20051;-71
2021/08/06 05:53:53;;;;;;;13.82;4.80;;;;;;;;;;5114378;28;20023;-71
2021/08/06 05:56:18;;;;;;;6.55;4.82;;;;;;;;;;5114912;28;20428;-71
2021/08/06 05:58:43;;;;;;;6.57;4.15;;;;;;;;;;5115058;28;20055;-71
2021/08/06 06:01:09;;;;;;;7.03;4.43;;;;;;;;;;5113317;28;20387;-71
2021/08/06 06:03:34;;;;;;;16.42;5.60;;;;;;;;;;5112342;28;20110;-71
2021/08/06 06:06:00;;;;;;;8.38;4.40;;;;;;;;;;5114905;28;20019;-71
2021/08/06 06:08:26;;;;;;;7.35;4.20;;;;;;;;;;5114983;28;20458;-71
2021/08/06 06:10:52;;;;;;;11.25;4.72;;;;;;;;;;5115481;28;20069;-71
2021/08/06 06:13:17;;;;;;;6.72;4.57;;;;;;;;;;5114898;28;20027;-71
2021/08/06 06:15:42;;;;;;;10.25;4.85;;;;;;;;;;5114581;28;20034;-71
2021/08/06 06:18:09;;;;;;;11.27;5.35;;;;;;;;;;5112619;28;20479;-71
2021/08/06 06:20:34;;;;;;;10.40;5.10;;;;;;;;;;5114443;28;20023;-71
2021/08/06 06:23:00;;;;;;;7.25;5.15;;;;;;;;;;5114373;28;20063;-71
2021/08/06 06:25:25;;;;;;;5.75;4.32;;;;;;;;;;5114318;28;20106;-71
2021/08/06 06:27:54;;;;;;;5.47;4.22;;;;;;;;;;5114262;28;20031;-71
2021/08/06 06:30:21;;;;;;;6.78;4.40;;;;;;;;;;5114794;28;20020;-71
2021/08/06 06:32:47;;;;;;;6.30;4.32;;;;;;;;;;5114269;28;20027;-71
2021/08/06 06:35:12;;;;;;;6.30;4.13;;;;;;;;;;5114523;28;20372;-71
2021/08/06 06:37:37;;;;;;;5.25;3.92;;;;;;;;;;5111760;28;20082;-71
2021/08/06 06:40:03;;;;;;;6.53;4.57;;;;;;;;;;5113480;28;20034;-71
2021/08/06 06:42:28;;;;;;;4.53;3.78;;;;;;;;;;5114382;28;20027;-71
2021/08/06 06:44:54;;;;;;;5.07;4.22;;;;;;;;;;5114184;28;20562;-72
2021/08/06 06:47:19;;;;;;;5.05;3.20;;;;;;;;;;5113658;28;20081;-71
2021/08/06 06:49:44;;;;;;;5.60;3.80;;;;;;;;;;5095758;28;20046;-71
2021/08/06 06:52:10;;;;;;;6.07;3.70;;;;;;;;;;5113495;28;20020;-71
2021/08/06 06:54:35;;;;;;;5.97;3.72;;;;;;;;;;5113812;28;20098;-71
2021/08/06 06:57:00;;;;;;;5.40;3.35;;;;;;;;;;5113418;28;20039;-71
2021/08/06 06:59:25;;;;;;;9.25;3.58;;;;;;;;;;5095551;28;20019;-71
2021/08/06 07:01:51;;;;;;;5.88;3.60;;;;;;;;;;5113588;28;20039;-71
2021/08/06 07:04:16;;;;;;;7.53;3.33;;;;;;;;;;5113969;28;20471;-71
2021/08/06 07:06:41;;;;;;;7.22;4.18;;;;;;;;;;5113701;28;20027;-71
2021/08/06 07:09:08;;;;;;;6.45;3.65;;;;;;;;;;5113919;28;20027;-72
2021/08/06 07:11:34;;;;;;;6.38;3.70;;;;;;;;;;5113522;28;20032;-71
2021/08/06 07:14:00;;;;;;;6.38;3.88;;;;;;;;;;5112253;28;20024;-71
2021/08/06 07:16:25;;;;;;;7.20;4.07;;;;;;;;;;5113347;28;20019;-71
2021/08/06 07:18:51;;;;;;;5.28;3.83;;;;;;;;;;5113657;28;20023;-71
2021/08/06 07:21:16;;;;;;;6.55;3.40;;;;;;;;;;5113744;28;20019;-71
2021/08/06 07:23:41;;;;;;;9.27;3.97;;;;;;;;;;5113544;28;20027;-71
2021/08/06 07:26:07;;;;;;;9.05;4.38;;;;;;;;;;5113550;28;20424;-72
2021/08/06 07:28:32;;;;;;;6.57;4.13;;;;;;;;;;5113640;28;20023;-71
2021/08/06 07:30:58;;;;;;;5.53;4.25;;;;;;;;;;5107577;28;20040;-71
2021/08/06 07:33:27;;;;;;;5.43;3.70;;;;;;;;;;5113315;28;20046;-71
2021/08/06 07:35:54;;;;;;;8.95;4.22;;;;;;;;;;5112577;28;20034;-71
2021/08/06 07:38:20;;;;;;;4.60;3.80;;;;;;;;;;5113085;28;20182;-71
2021/08/06 07:40:54;;;;;;;6.25;3.80;;;;;;;;;;5113560;28;20020;-71
2021/08/06 07:43:27;;;;;;;6.78;3.60;;;;;;;;;;5113668;28;20024;-71
2021/08/06 07:45:55;;;;;;;6.75;3.92;;;;;;;;;;5113716;28;20454;-71
2021/08/06 07:48:21;;;;;;;4.05;3.25;;;;;;;;;;5095401;28;20020;-72
2021/08/06 07:50:48;;;;;;;6.93;3.42;;;;;;;;;;5116204;28;20015;-71
2021/08/06 07:53:17;;;;;;;3.28;2.55;;;;;;;;;;5126578;28;20181;-70
2021/08/06 07:55:46;;;;;;;10.75;3.67;;;;;;;;;;5133756;28;20444;-72
2021/08/06 07:58:16;;;;;;;6.07;3.33;;;;;;;;;;5133774;27;20030;-71
2021/08/06 08:00:43;;;;;;;6.47;3.28;;;;;;;;;;5137880;27;20102;-70
2021/08/06 08:03:14;;;;;;;4.75;3.40;;;;;;;;;;5137607;27;20449;-71
2021/08/06 08:05:40;;;;;;;5.65;3.03;;;;;;;;;;5134350;27;20425;-71
2021/08/06 08:08:06;;;;;;;13.70;4.00;;;;;;;;;;5117256;28;20064;-71
2021/08/06 08:10:32;;;;;;;4.07;3.35;;;;;;;;;;5115670;28;20031;-71
2021/08/06 08:12:58;;;;;;;5.35;4.10;;;;;;;;;;5109391;28;20364;-71
2021/08/06 08:15:24;;;;;;;6.00;3.63;;;;;;;;;;5111748;28;20030;-72
2021/08/06 08:17:49;;;;;;;4.75;3.70;;;;;;;;;;5116880;28;20043;-71
2021/08/06 08:20:15;;;;;;;5.65;3.75;;;;;;;;;;5116563;28;20453;-71
2021/08/06 08:22:41;;;;;;;5.75;4.28;;;;;;;;;;5116444;28;20035;-69
2021/08/06 08:25:08;;;;;;;5.72;4.25;;;;;;;;;;5107225;28;20506;-69
2021/08/06 08:27:34;;;;;;;8.25;4.88;;;;;;;;;;5097924;28;20031;-70
2021/08/06 08:30:00;;;;;;;4.28;3.88;;;;;;;;;;5116597;28;20386;-69
2021/08/06 08:32:26;;;;;;;6.50;4.43;;;;;;;;;;5100863;28;20024;-70
2021/08/06 08:34:51;;;;;;;4.53;3.83;;;;;;;;;;5105740;28;20118;-69
2021/08/06 08:37:16;;;;;;;5.90;4.40;;;;;;;;;;5116578;28;20016;-70
2021/08/06 08:39:42;;;;;;;7.53;4.70;;;;;;;;;;5115760;28;20395;-70
2021/08/06 08:42:08;;;;;;;5.07;4.22;;;;;;;;;;5110822;28;20041;-70
2021/08/06 08:44:35;;;;;;;6.35;4.80;;;;;;;;;;5116054;28;20102;-71
2021/08/06 08:47:02;;;;;;;5.70;4.75;;;;;;;;;;5116551;28;20031;-70
2021/08/06 08:49:33;;;;;;;4.53;4.00;;;;;;;;;;5116108;28;20020;-70
2021/08/06 08:51:59;;;;;;;7.38;3.97;;;;;;;;;;5116349;28;20042;-70
2021/08/06 08:54:25;;;;;;;4.85;4.32;;;;;;;;;;5116391;28;20028;-70
2021/08/06 08:56:51;;;;;;;6.38;4.75;;;;;;;;;;5115801;28;20028;-70
2021/08/06 08:59:16;;;;;;;5.72;4.22;;;;;;;;;;5116009;28;20023;-70
2021/08/06 09:01:41;;;;;;;4.93;4.20;;;;;;;;;;5114483;28;20088;-70
2021/08/06 09:04:24;;;;;;;4.20;3.78;;;;;;;;;;5116263;28;20429;-70
2021/08/06 09:06:50;;;;;;;5.72;4.70;;;;;;;;;;5115910;28;20031;-71
2021/08/06 09:09:20;;;;;;;10.07;5.93;;;;;;;;;;5115371;28;20035;-71
2021/08/06 09:11:47;;;;;;;7.57;4.95;;;;;;;;;;5110537;28;20028;-70
2021/08/06 09:14:25;;;;;;;6.43;4.30;;;;;;;;;;5095625;28;20099;-70
2021/08/06 09:17:02;;;;;;;5.10;4.55;;;;;;;;;;5099972;28;20023;-69
2021/08/06 09:19:31;;;;;;;4.60;4.20;;;;;;;;;;5115351;28;20114;-70
2021/08/06 09:22:21;;;;;;;5.25;3.83;;;;;;;;;;5115710;28;20024;-70
2021/08/06 09:25:15;;;;;;;4.53;4.13;;;;;;;;;;5115903;28;20102;-71
2021/08/06 09:27:49;;;;;;;4.82;4.00;;;;;;;;;;5115175;28;20023;-71
2021/08/06 09:30:35;;;;;;;5.88;4.10;;;;;;;;;;5115109;28;20035;-72
2021/08/06 09:33:02;;;;;;;12.35;4.47;;;;;;;;;;5115440;28;20027;-72
2021/08/06 09:35:30;;;;;;;5.72;4.03;;;;;;;;;;5114282;28;20023;-72
2021/08/06 09:37:58;;;;;;;4.53;4.10;;;;;;;;;;5095342;28;20047;-72
2021/08/06 09:40:26;;;;;;;6.63;4.50;;;;;;;;;;5076980;28;20124;-73
2021/08/06 09:43:00;;;;;;;5.30;4.45;;;;;;;;;;5095198;28;20032;-72
2021/08/06 09:45:28;;;;;;;6.20;5.00;;;;;;;;;;5095148;28;20039;-70
2021/08/06 09:47:55;;;;;;;7.07;4.55;;;;;;;;;;5110576;28;20089;-71
2021/08/06 09:50:26;;;;;;;7.47;4.95;;;;;;;;;;5094841;28;20030;-71
2021/08/06 09:52:53;;;;;;;4.85;4.32;;;;;;;;;;5094672;28;20386;-71
2021/08/06 09:55:18;;;;;;;4.78;4.30;;;;;;;;;;5094899;28;20016;-71
2021/08/06 09:57:45;;;;;;;5.32;4.82;;;;;;;;;;5113164;28;20031;-71
2021/08/06 10:00:22;;;;;;;6.72;4.95;;;;;;;;;;5114618;28;20028;-71
2021/08/06 10:02:49;;;;;;;9.15;4.95;;;;;;;;;;5112411;28;20023;-71
2021/08/06 10:05:17;;;;;;;8.15;4.57;;;;;;;;;;5114715;28;20031;-74
2021/08/06 10:07:48;;;;;;;5.15;4.63;;;;;;;;;;5118435;28;20081;-74
2021/08/06 10:10:19;;;;;;;6.20;4.65;;;;;;;;;;5118485;28;20027;-74
2021/08/06 10:12:46;;;;;;;8.52;4.68;;;;;;;;;;5101086;28;20024;-73
2021/08/06 10:15:13;;;;;;;3.97;3.15;;;;;;;;;;5096547;28;20027;-73
2021/08/06 10:17:38;;;;;;;3.38;3.05;;;;;;;;;;5107367;28;20395;-74
2021/08/06 10:20:06;;;;;;;3.28;2.60;;;;;;;;;;5115636;28;20039;-74
2021/08/06 10:22:31;;;;;;;4.50;2.70;;;;;;;;;;5116089;28;20024;-74
2021/08/06 10:24:58;;;;;;;3.15;2.85;;;;;;;;;;5095650;28;20023;-73
2021/08/06 10:27:28;;;;;;;5.45;2.58;;;;;;;;;;5117240;28;20468;-73
2021/08/06 10:29:59;;;;;;;4.28;2.35;;;;;;;;;;5116902;28;20028;-73
2021/08/06 10:32:26;;;;;;;7.43;3.35;;;;;;;;;;5116309;28;20057;-73
2021/08/06 10:35:08;;;;;;;2.92;2.65;;;;;;;;;;5117240;28;20023;-75
2021/08/06 10:37:55;;;;;;;2.73;2.50;;;;;;;;;;5109592;28;20464;-74
2021/08/06 10:40:37;;;;;;;3.63;2.70;;;;;;;;;;5103579;28;20016;-74
2021/08/06 10:43:08;;;;;;;3.80;2.70;;;;;;;;;;5117817;28;20168;-73
2021/08/06 10:45:48;;;;;;;6.07;2.67;;;;;;;;;;5128463;27;20031;-74
2021/08/06 10:48:39;;;;;;;3.95;2.78;;;;;;;;;;5115916;28;20036;-73
2021/08/06 10:51:17;;;;;;;4.43;2.33;;;;;;;;;;5113034;27;20383;-72
2021/08/06 10:53:56;;;;;;;4.28;2.50;;;;;;;;;;5136443;27;20027;-73
2021/08/06 10:56:39;;;;;;;2.80;2.28;;;;;;;;;;5136428;27;20023;-73
2021/08/06 10:59:13;;;;;;;6.38;2.25;;;;;;;;;;5125141;27;20023;-75
2021/08/06 11:01:48;;;;;;;2.58;1.92;;;;;;;;;;5102748;28;20019;-74
2021/08/06 11:04:16;;;;;;;2.80;2.28;;;;;;;;;;5099162;28;20027;-73
2021/08/06 11:06:47;;;;;;;5.57;3.05;;;;;;;;;;5117598;28;20031;-74
2021/08/06 11:11:55;;;;;;;7.32;4.18;;;;;;;;;;5116513;28;20031;-72
2021/08/06 11:14:32;;;;;;;5.45;4.93;;;;;;;;;;5116099;28;20023;-72
2021/08/06 11:17:09;;;;;;;7.90;4.85;;;;;;;;;;5114968;28;20020;-73
2021/08/06 11:19:35;;;;;;;5.65;5.10;;;;;;;;;;5098922;28;20019;-73
2021/08/06 11:22:04;;;;;;;5.57;5.13;;;;;;;;;;5107445;28;20024;-73
2021/08/06 11:24:43;;;;;;;7.53;5.25;;;;;;;;;;5107156;28;20019;-74
2021/08/06 11:27:10;;;;;;;7.93;5.35;;;;;;;;;;5104155;28;20028;-72
2021/08/06 11:29:37;;;;;;;9.70;6.00;;;;;;;;;;5096295;28;20480;-71
2021/08/06 11:32:14;;;;;;;6.68;5.30;;;;;;;;;;5096496;28;20103;-73
2021/08/06 11:34:55;;;;;;;4.15;3.83;;;;;;;;;;5098137;28;20119;-73
2021/08/06 11:37:22;;;;;;;3.22;2.63;;;;;;;;;;5099514;28;20027;-73
2021/08/06 11:40:08;;;;;;;2.55;2.25;;;;;;;;;;5114232;28;20102;-73
2021/08/06 11:42:34;;;;;;;6.13;2.45;;;;;;;;;;5120545;28;20028;-74
2021/08/06 11:44:59;;;;;;;2.95;1.58;;;;;;;;;;5120938;28;20068;-73
2021/08/06 11:47:38;;;;;;;2.15;1.52;;;;;;;;;;5119711;28;20087;-73
2021/08/06 11:50:06;;;;;;;8.15;1.60;;;;;;;;;;5120473;28;20024;-73
2021/08/06 11:52:58;;;;;;;5.20;1.40;;;;;;;;;;5120377;28;20027;-73
2021/08/06 11:55:28;;;;;;;2.47;1.40;;;;;;;;;;5115594;28;20050;-74
2021/08/06 11:57:56;;;;;;;2.95;1.15;;;;;;;;;;5108298;28;20043;-73
2021/08/06 12:00:28;;;;;;;3.10;1.77;;;;;;;;;;5098528;28;20024;-69
2021/08/06 12:03:03;;;;;;;1.40;1.30;;;;;;;;;;5117686;28;20113;-70
2021/08/06 12:05:29;;;;;;;2.83;1.10;;;;;;;;;;5117582;28;20026;-70
2021/08/06 12:07:55;;;;;;;5.75;1.30;;;;;;;;;;5117214;28;20021;-70
2021/08/06 12:10:26;;;;;;;3.88;1.38;;;;;;;;;;5116875;28;20033;-71
2021/08/06 12:12:54;;;;;;;2.00;1.33;;;;;;;;;;5116582;28;20510;-70
2021/08/06 12:15:19;;;;;;;5.43;1.30;;;;;;;;;;5109488;28;20553;-70
2021/08/06 12:18:11;;;;;;;3.67;1.30;;;;;;;;;;5097477;28;20055;-71
2021/08/06 12:20:44;;;;;;;1.50;1.10;;;;;;;;;;5106420;28;20023;-70
2021/08/06 12:23:16;;;;;;;3.97;1.23;;;;;;;;;;5102413;28;20054;-70
2021/08/06 12:26:26;;;;;;;4.55;1.30;;;;;;;;;;5117227;28;20027;-70
2021/08/06 12:29:23;;;;;;;1.98;1.10;;;;;;;;;;5077701;28;20066;-71
2021/08/06 12:31:56;;;;;;;6.65;1.30;;;;;;;;;;5107213;28;20031;-71
2021/08/06 12:34:26;;;;;;;6.90;1.70;;;;;;;;;;5097852;28;20036;-70
2021/08/06 12:36:56;;;;;;;1.23;1.13;;;;;;;;;;5109143;28;20055;-69
2021/08/06 12:39:22;;;;;;;6.82;1.73;;;;;;;;;;5078489;28;20557;-68
2021/08/06 12:41:55;;;;;;;4.55;1.88;;;;;;;;;;5095935;28;20055;-67
2021/08/06 12:44:36;;;;;;;7.43;2.20;;;;;;;;;;5102834;28;20032;-67
2021/08/06 12:47:04;;;;;;;4.07;1.77;;;;;;;;;;5082489;28;20055;-67
2021/08/06 12:49:58;;;;;;;7.65;2.15;;;;;;;;;;5116184;28;20106;-67
2021/08/06 12:52:40;;;;;;;7.63;2.30;;;;;;;;;;5088637;28;20154;-68
2021/08/06 12:55:38;;;;;;;5.13;2.17;;;;;;;;;;5095823;28;20036;-68
2021/08/06 12:58:53;;;;;;;10.32;2.58;;;;;;;;;;5116067;28;20034;-68
2021/08/06 13:01:33;;;;;;;5.28;2.30;;;;;;;;;;5105772;28;20078;-68
2021/08/06 13:04:11;;;;;;;5.95;2.92;;;;;;;;;;5078677;28;20031;-69
2021/08/06 13:06:58;;;;;;;3.78;2.30;;;;;;;;;;5114452;28;20023;-69
2021/08/06 13:09:42;;;;;;;7.15;2.45;;;;;;;;;;5076672;28;20399;-66
2021/08/06 13:12:15;;;;;;;2.80;2.15;;;;;;;;;;5106505;28;20034;-70
2021/08/06 13:14:47;;;;;;;3.13;1.92;;;;;;;;;;5101092;28;20491;-70
2021/08/06 13:17:19;;;;;;;3.63;3.05;;;;;;;;;;5095642;28;20396;-70
2021/08/06 13:19:45;;;;;;;;;;;;;;;;;;5075224;22;20095;-83
2021/08/06 13:22:13;;;;;;;6.53;1.63;;;;;;;;;;5050893;28;19963;-85
2021/08/06 13:24:40;;;;;;;5.07;2.25;;;;;;;;;;5060841;28;20016;-86
2021/08/06 13:27:06;;;;;;;2.00;1.50;;;;;;;;;;5058834;28;20028;-84
2021/08/06 13:29:32;;;;;;;3.97;1.70;;;;;;;;;;5058501;28;20021;-85
2021/08/06 13:31:58;;;;;;;5.38;1.60;;;;;;;;;;5057736;28;20036;-86
2021/08/06 13:34:24;;;;;;;6.57;1.45;;;;;;;;;;5039877;28;20155;-86
2021/08/06 13:36:49;;;;;;;2.60;1.20;;;;;;;;;;5057805;28;20075;-85
2021/08/06 13:39:14;;;;;;;3.22;1.15;;;;;;;;;;5040399;28;20507;-86
2021/08/06 13:41:40;;;;;;;3.20;1.45;;;;;;;;;;5040629;28;20520;-85
2021/08/06 13:44:05;;;;;;;3.17;1.40;;;;;;;;;;5040411;28;20082;-83
2021/08/06 13:46:33;;;;;;;4.18;1.25;;;;;;;;;;5040266;28;20443;-85
2021/08/06 13:48:58;;;;;;;1.33;1.00;;;;;;;;;;5040391;28;20138;-85
2021/08/06 13:51:23;;;;;;;2.22;1.27;;;;;;;;;;5040684;28;20491;-87
2021/08/06 13:53:49;;;;;;;2.78;1.05;;;;;;;;;;5050681;28;20025;-86
2021/08/06 13:56:15;;;;;;;3.08;1.50;;;;;;;;;;5050603;28;20029;-87
2021/08/06 13:58:40;;;;;;;2.13;0.95;;;;;;;;;;5040347;28;20017;-85
2021/08/06 14:01:06;;;;;;;1.90;1.08;;;;;;;;;;5059227;28;20053;-85
2021/08/06 14:03:31;;;;;;;3.50;1.20;;;;;;;;;;5042554;28;20017;-85
2021/08/06 14:05:57;;;;;;;1.80;1.20;;;;;;;;;;5060646;28;20380;-85
2021/08/06 14:08:22;;;;;;;2.95;1.23;;;;;;;;;;5059422;28;20025;-84
2021/08/06 14:10:47;;;;;;;3.53;1.20;;;;;;;;;;5058251;28;20032;-85
2021/08/06 14:13:13;;;;;;;1.50;1.00;;;;;;;;;;5058438;28;20032;-85
2021/08/06 14:15:38;;;;;;;2.17;0.85;;;;;;;;;;5058560;28;20025;-85
2021/08/06 14:18:04;;;;;;;1.05;0.80;;;;;;;;;;5040806;28;20025;-85
2021/08/06 14:20:30;;;;;;;3.10;1.05;;;;;;;;;;5059545;28;20032;-86
2021/08/06 14:22:55;;;;;;;0.90;0.88;;;;;;;;;;5059121;28;20480;-84
2021/08/06 14:25:20;;;;;;;2.97;1.13;;;;;;;;;;5059694;28;20075;-85
2021/08/06 14:27:46;;;;;;;3.78;1.02;;;;;;;;;;5058414;28;20392;-83
2021/08/06 14:30:11;;;;;;;1.27;0.90;;;;;;;;;;5057974;28;20025;-84
2021/08/06 14:32:37;;;;;;;2.03;1.10;;;;;;;;;;5058682;28;20510;-85
2021/08/06 14:35:03;;;;;;;1.20;1.05;;;;;;;;;;5058262;28;20407;-84
2021/08/06 14:37:29;;;;;;;7.53;1.42;;;;;;;;;;5057592;28;20103;-83
2021/08/06 14:39:54;;;;;;;5.35;1.20;;;;;;;;;;5057578;28;20048;-84
2021/08/06 14:42:19;;;;;;;2.20;1.08;;;;;;;;;;5058597;28;20029;-84
2021/08/06 14:44:48;;;;;;;5.05;1.40;;;;;;;;;;5057720;28;20060;-85
2021/08/06 14:47:14;;;;;;;1.70;1.17;;;;;;;;;;5057947;28;20104;-84
2021/08/06 14:49:39;;;;;;;1.67;1.25;;;;;;;;;;5040575;28;20060;-85
2021/08/06 14:52:04;;;;;;;5.95;1.88;;;;;;;;;;5058315;28;20108;-84